createdAt,value
2022-10-24T00:00:13.265Z,0.3
2022-10-24T00:01:22.902Z,0.2
2022-10-24T00:02:30.685Z,0.3
2022-10-24T00:03:40.318Z,0.4
2022-10-24T00:04:50.023Z,0.3
2022-10-24T00:05:58.783Z,0.4
2022-10-24T00:07:08.544Z,0.2
2022-10-24T00:08:17.253Z,0.4
2022-10-24T00:09:25.998Z,0.2
2022-10-24T00:10:35.671Z,0.4
2022-10-24T00:11:44.375Z,0.1
2022-10-24T00:12:54.044Z,0.2
2022-10-24T00:14:03.795Z,0.3
2022-10-24T00:15:11.421Z,0.3
2022-10-24T00:16:21.134Z,0.2
2022-10-24T00:17:28.798Z,0.2
2022-10-24T00:18:37.522Z,0.2
2022-10-24T00:19:47.190Z,0.4
2022-10-24T00:20:55.876Z,0.3
2022-10-24T00:22:05.574Z,0.2
2022-10-24T00:23:14.285Z,0.2
2022-10-24T00:24:22.998Z,0.4
2022-10-24T00:25:32.809Z,0.4
2022-10-24T00:26:41.501Z,0.4
2022-10-24T00:27:49.178Z,0.2
2022-10-24T00:28:58.868Z,0.1
2022-10-24T00:30:07.557Z,0.1
2022-10-24T00:31:17.378Z,0.3
2022-10-24T00:32:27.055Z,0.2
2022-10-24T00:33:34.748Z,0.4
2022-10-24T00:34:44.457Z,0.2
2022-10-24T00:35:53.248Z,0.3
2022-10-24T00:37:02.981Z,0.2
2022-10-24T00:38:12.680Z,0.4
2022-10-24T00:39:21.365Z,0.2
2022-10-24T00:40:31.063Z,0.4
2022-10-24T00:41:39.819Z,0.3
2022-10-24T00:42:48.558Z,0.4
2022-10-24T00:43:58.274Z,0.4
2022-10-24T00:45:05.997Z,0.4
2022-10-24T00:46:15.680Z,0.2
2022-10-24T00:47:25.354Z,0.7
2022-10-24T00:48:33.105Z,0.2
2022-10-24T00:49:42.808Z,0.4
2022-10-24T00:50:51.530Z,0.4
2022-10-24T00:52:00.224Z,0.9
2022-10-24T00:53:09.916Z,0.3
2022-10-24T00:54:17.675Z,0.5
2022-10-24T00:55:27.383Z,0.4
2022-10-24T00:56:37.092Z,1
2022-10-24T00:57:47.121Z,0.5
2022-10-24T00:58:55.540Z,0.5
2022-10-24T01:00:04.382Z,0.5
2022-10-24T01:01:13.207Z,0.4
2022-10-24T01:02:22.756Z,0.4
2022-10-24T01:03:30.488Z,0.6
2022-10-24T01:04:40.171Z,0.4
2022-10-24T01:05:49.939Z,0.6
2022-10-24T01:06:58.577Z,0.5
2022-10-24T01:08:08.215Z,0.6
2022-10-24T01:09:15.913Z,0.9
2022-10-24T01:10:25.674Z,1
2022-10-24T01:11:34.427Z,0.7
2022-10-24T01:12:43.235Z,0.7
2022-10-24T01:13:51.766Z,0.9
2022-10-24T01:15:00.442Z,0.9
2022-10-24T01:16:09.112Z,0.6
2022-10-24T01:17:18.803Z,0.6
2022-10-24T01:18:27.530Z,0.4
2022-10-24T01:19:37.216Z,0.6
2022-10-24T01:20:45.895Z,0.5
2022-10-24T01:21:53.564Z,0.2
2022-10-24T01:23:02.303Z,0.4
2022-10-24T01:24:10.955Z,0.4
2022-10-24T01:25:19.625Z,0.2
2022-10-24T01:26:29.308Z,0.2
2022-10-24T01:27:38.040Z,0.3
2022-10-24T01:28:47.882Z,0.4
2022-10-24T01:29:56.554Z,0.2
2022-10-24T01:31:04.254Z,0.2
2022-10-24T01:32:13.957Z,0.2
2022-10-24T01:33:23.656Z,0.4
2022-10-24T01:34:33.475Z,0.2
2022-10-24T01:35:42.161Z,0.3
2022-10-24T01:36:50.850Z,0.3
2022-10-24T01:38:00.569Z,0.2
2022-10-24T01:39:10.285Z,0.3
2022-10-24T01:40:18.969Z,0.3
2022-10-24T01:41:28.641Z,0.5
2022-10-24T01:42:37.338Z,0.2
2022-10-24T01:43:46.080Z,0.3
2022-10-24T01:44:55.737Z,0.2
2022-10-24T01:46:03.489Z,0.3
2022-10-24T01:47:13.177Z,0.3
2022-10-24T01:48:21.933Z,0.5
2022-10-24T01:49:31.611Z,0.4
2022-10-24T01:50:41.321Z,0.5
2022-10-24T01:51:50.026Z,0.2
2022-10-24T01:52:58.749Z,0.3
2022-10-24T01:54:08.445Z,0.3
2022-10-24T01:55:16.151Z,0.3
2022-10-24T01:56:25.824Z,0.5
2022-10-24T01:57:34.565Z,0.3
2022-10-24T01:58:43.244Z,0.3
2022-10-24T01:59:52.932Z,0.5
2022-10-24T02:01:01.670Z,0.4
2022-10-24T02:02:10.302Z,0.2
2022-10-24T02:03:20.273Z,0.2
2022-10-24T02:04:28.936Z,0.2
2022-10-24T02:05:38.645Z,0.2
2022-10-24T02:06:48.316Z,0.3
2022-10-24T02:07:57.046Z,0.3
2022-10-24T02:09:06.817Z,0.3
2022-10-24T02:10:15.446Z,0.2
2022-10-24T02:11:25.141Z,0.4
2022-10-24T02:12:34.823Z,0.3
2022-10-24T02:13:43.490Z,0.1
2022-10-24T02:14:53.171Z,0.1
2022-10-24T02:16:01.840Z,0.2
2022-10-24T02:17:10.525Z,0.1
2022-10-24T02:18:20.238Z,0.2
2022-10-24T02:19:27.917Z,0.5
2022-10-24T02:20:36.616Z,0.4
2022-10-24T02:21:46.317Z,0.5
2022-10-24T02:22:55.992Z,0.4
2022-10-24T02:24:05.688Z,0.6
2022-10-24T02:25:14.355Z,0.5
2022-10-24T02:26:23.078Z,0.4
2022-10-24T02:27:32.806Z,0.4
2022-10-24T02:28:41.495Z,0.4
2022-10-24T02:29:50.174Z,0.7
2022-10-24T02:30:59.870Z,0.4
2022-10-24T02:32:08.608Z,0.5
2022-10-24T02:33:18.290Z,0.6
2022-10-24T02:34:26.984Z,0.3
2022-10-24T02:35:35.647Z,0.2
2022-10-24T02:36:45.342Z,0.3
2022-10-24T02:37:53.035Z,0.2
2022-10-24T02:39:03.119Z,0.2
2022-10-24T02:40:12.790Z,0.3
2022-10-24T02:41:20.459Z,0.3
2022-10-24T02:43:38.839Z,0.3
2022-10-24T02:44:47.519Z,0.4
2022-10-24T02:45:57.195Z,0.2
2022-10-24T02:47:06.939Z,0.4
2022-10-24T02:48:15.647Z,0.1
2022-10-24T02:49:25.357Z,0.2
2022-10-24T02:50:34.018Z,0.4
2022-10-24T02:51:42.694Z,0.2
2022-10-24T02:52:52.372Z,0.2
2022-10-24T02:54:00.108Z,0.1
2022-10-24T02:55:09.962Z,0.1
2022-10-24T02:56:20.599Z,0.1
2022-10-24T02:57:28.276Z,0.1
2022-10-24T02:58:37.958Z,0.2
2022-10-24T02:59:46.652Z,0.2
2022-10-24T03:00:55.370Z,0.2
2022-10-24T03:02:04.004Z,0.3
2022-10-24T03:03:12.707Z,0.2
2022-10-24T03:04:22.373Z,0.3
2022-10-24T03:05:30.140Z,0.4
2022-10-24T03:06:38.963Z,0.5
2022-10-24T03:07:48.625Z,0.6
2022-10-24T03:08:56.291Z,0.7
2022-10-24T03:10:05.959Z,0.7
2022-10-24T03:11:14.627Z,0.7
2022-10-24T03:12:22.393Z,0.7
2022-10-24T03:13:32.138Z,0.7
2022-10-24T03:14:40.896Z,0.6
2022-10-24T03:15:50.830Z,0.7
2022-10-24T03:17:00.292Z,0.9
2022-10-24T03:18:07.994Z,0.8
2022-10-24T03:19:17.665Z,0.8
2022-10-24T03:20:26.341Z,1
2022-10-24T03:21:35.021Z,0.9
2022-10-24T03:22:44.726Z,0.8
2022-10-24T03:23:53.518Z,0.6
2022-10-24T03:25:02.209Z,0.5
2022-10-24T03:26:11.857Z,0.4
2022-10-24T03:27:20.631Z,0.4
2022-10-24T03:28:30.311Z,0.4
2022-10-24T03:29:40.091Z,0.1
2022-10-24T03:30:47.767Z,0.1
2022-10-24T03:31:57.485Z,0.2
2022-10-24T03:33:06.121Z,0.1
2022-10-24T03:34:14.809Z,0.1
2022-10-24T03:35:24.517Z,0.2
2022-10-24T03:36:33.185Z,0.1
2022-10-24T03:37:42.858Z,0.1
2022-10-24T03:38:51.569Z,0.1
2022-10-24T03:40:00.274Z,0.1
2022-10-24T03:41:10.116Z,0.1
2022-10-24T03:42:18.801Z,0.2
2022-10-24T03:43:28.521Z,0.1
2022-10-24T03:44:38.217Z,0.1
2022-10-24T03:45:46.892Z,0.2
2022-10-24T03:46:56.705Z,0.2
2022-10-24T03:48:05.401Z,0.2
2022-10-24T03:49:14.060Z,0.2
2022-10-24T03:50:23.795Z,0.1
2022-10-24T03:51:31.512Z,0.1
2022-10-24T03:52:40.212Z,0.1
2022-10-24T03:53:49.878Z,0.1
2022-10-24T03:54:58.604Z,0.3
2022-10-24T03:56:08.278Z,0.2
2022-10-24T03:57:17.962Z,0.2
2022-10-24T03:58:27.650Z,0.2
2022-10-24T03:59:37.327Z,0.1
2022-10-24T04:00:45.029Z,0.2
2022-10-24T04:01:54.774Z,0.1
2022-10-24T04:03:04.482Z,0.1
2022-10-24T04:04:12.199Z,0.3
2022-10-24T04:05:21.872Z,0.1
2022-10-24T04:06:32.549Z,0.2
2022-10-24T04:07:39.215Z,0.5
2022-10-24T04:08:48.888Z,0.5
2022-10-24T04:09:57.725Z,0.6
2022-10-24T04:11:06.444Z,0.8
2022-10-24T04:12:16.113Z,0.7
2022-10-24T04:13:24.862Z,0.5
2022-10-24T04:14:34.619Z,0.6
2022-10-24T04:15:43.321Z,0.7
2022-10-24T04:16:51.012Z,0.7
2022-10-24T04:18:00.675Z,0.5
2022-10-24T04:19:08.338Z,0.5
2022-10-24T04:20:17.034Z,0.3
2022-10-24T04:21:26.732Z,0.3
2022-10-24T04:22:34.396Z,0.4
2022-10-24T04:23:44.083Z,0.5
2022-10-24T04:24:52.772Z,0.4
2022-10-24T04:26:02.455Z,0.6
2022-10-24T04:27:12.160Z,0.5
2022-10-24T04:28:20.836Z,0.5
2022-10-24T04:29:29.536Z,0.5
2022-10-24T04:30:39.273Z,0.6
2022-10-24T04:31:46.885Z,1
2022-10-24T04:32:56.588Z,0.7
2022-10-24T04:34:05.293Z,0.7
2022-10-24T04:35:13.991Z,0.5
2022-10-24T04:36:23.691Z,0.7
2022-10-24T04:37:33.356Z,0.7
2022-10-24T04:38:43.054Z,0.7
2022-10-24T04:39:52.794Z,0.5
2022-10-24T04:41:01.458Z,0.6
2022-10-24T04:42:11.143Z,0.8
2022-10-24T04:43:20.822Z,0.5
2022-10-24T04:44:30.534Z,0.6
2022-10-24T04:45:40.227Z,0.5
2022-10-24T04:46:51.266Z,0.4
2022-10-24T04:47:59.573Z,0.6
2022-10-24T04:49:09.253Z,0.5
2022-10-24T04:50:20.145Z,1.2
2022-10-24T04:51:29.940Z,1
2022-10-24T04:52:39.553Z,0.4
2022-10-24T04:53:47.219Z,0.4
2022-10-24T04:54:56.900Z,0.8
2022-10-24T04:56:05.584Z,0.3
2022-10-24T04:57:14.241Z,0.3
2022-10-24T04:58:23.922Z,0.3
2022-10-24T04:59:32.612Z,0.3
2022-10-24T05:00:42.282Z,0.3
2022-10-24T05:01:52.050Z,0.3
2022-10-24T05:03:01.657Z,0.3
2022-10-24T05:04:10.413Z,0.4
2022-10-24T05:05:18.071Z,0.4
2022-10-24T05:06:27.727Z,0.5
2022-10-24T05:07:35.441Z,0.2
2022-10-24T05:08:45.093Z,0.6
2022-10-24T05:09:53.755Z,0.4
2022-10-24T05:11:01.430Z,0.2
2022-10-24T05:12:11.179Z,0.3
2022-10-24T05:13:20.798Z,0.4
2022-10-24T05:14:30.475Z,0.3
2022-10-24T05:15:40.170Z,0.2
2022-10-24T05:16:47.829Z,0.5
2022-10-24T05:17:56.510Z,0.3
2022-10-24T05:19:06.191Z,0.3
2022-10-24T05:20:13.859Z,0.4
2022-10-24T05:21:24.537Z,0.5
2022-10-24T05:22:33.194Z,0.2
2022-10-24T05:23:42.953Z,0.3
2022-10-24T05:24:52.656Z,0.5
2022-10-24T05:26:02.388Z,0.3
2022-10-24T05:27:11.075Z,0.3
2022-10-24T05:28:20.800Z,0.3
2022-10-24T05:29:29.482Z,0.4
2022-10-24T05:30:39.194Z,0.4
2022-10-24T05:31:47.875Z,0.3
2022-10-24T05:32:55.536Z,0.4
2022-10-24T05:34:05.209Z,0.4
2022-10-24T05:35:12.894Z,0.3
2022-10-24T05:36:21.556Z,0.3
2022-10-24T05:38:40.943Z,0.5
2022-10-24T05:39:50.653Z,0.4
2022-10-24T05:41:00.338Z,0.3
2022-10-24T05:42:09.042Z,0.2
2022-10-24T05:43:18.757Z,0.4
2022-10-24T05:44:27.453Z,0.5
2022-10-24T05:45:36.113Z,0.3
2022-10-24T05:46:45.835Z,0.4
2022-10-24T05:47:53.541Z,0.5
2022-10-24T05:49:03.196Z,0.4
2022-10-24T05:50:12.906Z,0.5
2022-10-24T05:51:22.641Z,0.4
2022-10-24T05:52:32.354Z,0.8
2022-10-24T05:53:41.187Z,0.4
2022-10-24T05:54:55.595Z,0.4
2022-10-24T05:56:01.549Z,0.3
2022-10-24T05:57:09.222Z,0.4
2022-10-24T05:58:18.877Z,0.5
2022-10-24T05:59:28.582Z,0.4
2022-10-24T06:00:37.258Z,0.4
2022-10-24T06:01:47.076Z,0.4
2022-10-24T06:02:55.792Z,0.3
2022-10-24T06:04:04.425Z,0.4
2022-10-24T06:05:14.124Z,0.5
2022-10-24T06:06:21.779Z,0.7
2022-10-24T06:07:31.472Z,0.6
2022-10-24T06:08:41.236Z,0.8
2022-10-24T06:09:50.899Z,0.5
2022-10-24T06:11:00.602Z,0.5
2022-10-24T06:12:08.294Z,0.6
2022-10-24T06:13:17.954Z,0.6
2022-10-24T06:14:27.624Z,0.6
2022-10-24T06:15:35.290Z,0.6
2022-10-24T06:16:45.093Z,0.4
2022-10-24T06:17:54.790Z,0.6
2022-10-24T06:19:02.458Z,0.5
2022-10-24T06:20:12.150Z,0.5
2022-10-24T06:21:20.821Z,0.4
2022-10-24T06:22:30.566Z,0.5
2022-10-24T06:23:40.238Z,0.5
2022-10-24T06:24:47.902Z,0.6
2022-10-24T06:25:57.591Z,0.6
2022-10-24T06:27:07.252Z,0.4
2022-10-24T06:28:15.992Z,0.5
2022-10-24T06:29:25.636Z,0.6
2022-10-24T06:30:35.306Z,0.5
2022-10-24T06:31:43.974Z,0.5
2022-10-24T06:32:53.634Z,0.5
2022-10-24T06:34:02.323Z,0.6
2022-10-24T06:35:11.995Z,0.4
2022-10-24T06:36:20.732Z,0.5
2022-10-24T06:37:30.360Z,0.6
2022-10-24T06:38:40.029Z,0.9
2022-10-24T06:39:47.731Z,0.6
2022-10-24T06:40:57.401Z,0.5
2022-10-24T06:42:07.073Z,0.6
2022-10-24T06:43:15.744Z,0.4
2022-10-24T06:44:25.446Z,0.7
2022-10-24T06:45:35.138Z,0.4
2022-10-24T06:46:44.816Z,0.4
2022-10-24T06:47:54.699Z,0.3
2022-10-24T06:49:04.155Z,0.4
2022-10-24T06:50:12.826Z,0.3
2022-10-24T06:51:22.640Z,0.3
2022-10-24T06:52:31.338Z,0.4
2022-10-24T06:53:40.027Z,0.2
2022-10-24T06:54:48.708Z,0.4
2022-10-24T06:55:58.387Z,0.3
2022-10-24T06:57:07.186Z,0.3
2022-10-24T06:58:15.859Z,0.3
2022-10-24T06:59:24.525Z,0.4
2022-10-24T07:00:33.219Z,0.3
2022-10-24T07:01:43.129Z,0.4
2022-10-24T07:02:52.567Z,0.3
2022-10-24T07:04:01.241Z,0.4
2022-10-24T07:05:10.905Z,0.3
2022-10-24T07:06:19.627Z,0.3
2022-10-24T07:07:28.263Z,0.4
2022-10-24T07:08:37.972Z,0.3
2022-10-24T07:09:46.646Z,0.4
2022-10-24T07:10:55.300Z,0.5
2022-10-24T07:12:04.977Z,0.4
2022-10-24T07:13:12.648Z,0.4
2022-10-24T07:14:22.349Z,0.5
2022-10-24T07:15:31.012Z,0.5
2022-10-24T07:16:40.714Z,0.4
2022-10-24T07:17:50.388Z,0.4
2022-10-24T07:18:58.059Z,0.7
2022-10-24T07:20:06.858Z,0.5
2022-10-24T07:21:16.588Z,0.5
2022-10-24T07:22:24.272Z,0.4
2022-10-24T07:23:33.968Z,0.4
2022-10-24T07:24:42.637Z,0.4
2022-10-24T07:25:50.314Z,0.5
2022-10-24T07:26:59.998Z,0.6
2022-10-24T07:28:07.664Z,0.4
2022-10-24T07:29:16.328Z,0.5
2022-10-24T07:30:25.982Z,0.4
2022-10-24T07:31:33.691Z,0.5
2022-10-24T07:32:43.685Z,0.4
2022-10-24T07:33:53.048Z,0.4
2022-10-24T07:35:01.717Z,0.5
2022-10-24T07:36:11.418Z,0.4
2022-10-24T07:37:20.185Z,0.4
2022-10-24T07:38:29.762Z,0.4
2022-10-24T07:39:39.445Z,0.3
2022-10-24T07:40:47.115Z,0.3
2022-10-24T07:41:56.790Z,0.3
2022-10-24T07:43:05.478Z,0.2
2022-10-24T07:44:15.160Z,0.4
2022-10-24T07:45:24.846Z,0.3
2022-10-24T07:46:32.507Z,0.4
2022-10-24T07:47:41.264Z,0.2
2022-10-24T07:48:50.937Z,0.4
2022-10-24T07:49:58.553Z,0.3
2022-10-24T07:51:08.231Z,0.2
2022-10-24T07:52:16.892Z,0.3
2022-10-24T07:53:25.598Z,0.3
2022-10-24T07:54:36.339Z,0.2
2022-10-24T07:55:44.987Z,0.4
2022-10-24T07:56:54.704Z,0.6
2022-10-24T07:58:04.327Z,0.3
2022-10-24T07:59:30.211Z,0.3
2022-10-24T08:00:25.071Z,0.3
2022-10-24T08:01:33.809Z,0.3
2022-10-24T08:02:41.527Z,0.2
2022-10-24T08:03:51.132Z,0.2
2022-10-24T08:04:58.828Z,0.3
2022-10-24T08:06:08.718Z,0.3
2022-10-24T08:07:18.391Z,0.3
2022-10-24T08:08:36.187Z,0.3
2022-10-24T08:09:38.722Z,0.3
2022-10-24T08:10:47.432Z,0.2
2022-10-24T08:11:55.097Z,0.7
2022-10-24T08:13:04.758Z,0.3
2022-10-24T08:14:12.500Z,0.3
2022-10-24T08:15:21.163Z,0.3
2022-10-24T08:16:30.844Z,0.4
2022-10-24T08:17:39.757Z,0.2
2022-10-24T08:18:49.479Z,0.4
2022-10-24T08:19:58.147Z,0.4
2022-10-24T08:21:04.895Z,0.3
2022-10-24T08:22:14.574Z,0.4
2022-10-24T08:23:24.637Z,0.4
2022-10-24T08:24:31.923Z,0.4
2022-10-24T08:25:41.660Z,0.4
2022-10-24T08:26:49.327Z,0.4
2022-10-24T08:27:59.012Z,0.5
2022-10-24T08:29:07.693Z,0.7
2022-10-24T08:30:17.374Z,0.4
2022-10-24T08:31:27.034Z,0.5
2022-10-24T08:32:36.711Z,0.5
2022-10-24T08:33:45.404Z,0.7
2022-10-24T08:34:55.099Z,0.8
2022-10-24T08:36:04.772Z,0.5
2022-10-24T08:37:14.478Z,0.9
2022-10-24T08:38:24.132Z,0.6
2022-10-24T08:39:31.800Z,0.9
2022-10-24T08:40:40.536Z,0.6
2022-10-24T08:41:48.217Z,0.6
2022-10-24T08:42:57.878Z,0.9
2022-10-24T08:44:07.552Z,0.7
2022-10-24T08:45:16.232Z,0.9
2022-10-24T08:46:25.914Z,0.7
2022-10-24T08:48:45.248Z,1
2022-10-24T08:49:54.906Z,0.6
2022-10-24T08:51:03.622Z,0.7
2022-10-24T08:52:12.327Z,0.8
2022-10-24T08:53:22.054Z,1
2022-10-24T08:54:29.692Z,0.7
2022-10-24T08:55:54.906Z,0.6
2022-10-24T08:56:49.029Z,0.7
2022-10-24T08:57:58.744Z,0.7
2022-10-24T08:59:07.412Z,0.8
2022-10-24T09:00:16.080Z,0.7
2022-10-24T09:01:25.837Z,0.8
2022-10-24T09:02:33.604Z,0.9
2022-10-24T09:03:55.422Z,0.7
2022-10-24T09:04:54.078Z,0.6
2022-10-24T09:06:01.762Z,0.6
2022-10-24T09:07:10.451Z,0.7
2022-10-24T09:08:20.298Z,0.6
2022-10-24T09:09:27.818Z,0.5
2022-10-24T09:10:37.488Z,0.7
2022-10-24T09:11:46.193Z,0.9
2022-10-24T09:12:54.863Z,0.9
2022-10-24T09:14:04.529Z,0.6
2022-10-24T09:15:12.235Z,0.9
2022-10-24T09:16:21.919Z,0.6
2022-10-24T09:17:30.605Z,1.1
2022-10-24T09:18:38.281Z,1
2022-10-24T09:19:47.962Z,0.6
2022-10-24T09:20:57.706Z,0.7
2022-10-24T09:22:07.411Z,0.6
2022-10-24T09:23:17.084Z,0.8
2022-10-24T09:24:25.767Z,0.9
2022-10-24T09:25:35.502Z,0.7
2022-10-24T09:26:45.214Z,0.8
2022-10-24T09:27:53.890Z,0.6
2022-10-24T09:29:03.596Z,0.9
2022-10-24T09:30:13.289Z,1
2022-10-24T09:31:22.967Z,0.9
2022-10-24T09:32:32.661Z,1.3
2022-10-24T09:33:41.336Z,1.1
2022-10-24T09:34:51.010Z,1.4
2022-10-24T09:35:59.705Z,3.1
2022-10-24T09:37:09.388Z,2
2022-10-24T09:38:19.094Z,2.2
2022-10-24T09:39:27.774Z,1.4
2022-10-24T09:40:37.469Z,1.2
2022-10-24T09:41:47.168Z,0.8
2022-10-24T09:42:55.815Z,0.7
2022-10-24T09:44:05.519Z,0.5
2022-10-24T09:45:14.211Z,0.6
2022-10-24T09:46:22.873Z,0.6
2022-10-24T09:47:32.537Z,0.4
2022-10-24T09:48:41.209Z,0.6
2022-10-24T09:49:50.908Z,0.4
2022-10-24T09:51:00.728Z,0.7
2022-10-24T09:52:08.389Z,0.4
2022-10-24T09:53:18.102Z,0.4
2022-10-24T09:54:27.771Z,0.6
2022-10-24T09:55:36.453Z,0.6
2022-10-24T09:56:46.215Z,0.5
2022-10-24T09:57:53.912Z,0.6
2022-10-24T09:59:02.556Z,0.5
2022-10-24T10:00:12.240Z,0.6
2022-10-24T10:01:22.063Z,0.7
2022-10-24T10:02:32.626Z,0.7
2022-10-24T10:03:41.288Z,0.8
2022-10-24T10:04:50.002Z,0.5
2022-10-24T10:05:58.658Z,0.5
2022-10-24T10:07:08.388Z,0.6
2022-10-24T10:08:18.064Z,0.4
2022-10-24T10:09:26.730Z,0.4
2022-10-24T10:10:34.388Z,0.9
2022-10-24T10:11:49.651Z,0.7
2022-10-24T10:12:54.767Z,0.7
2022-10-24T10:14:03.468Z,0.4
2022-10-24T10:15:13.117Z,0.3
2022-10-24T10:16:22.785Z,0.4
2022-10-24T10:17:31.466Z,0.4
2022-10-24T10:18:41.154Z,0.6
2022-10-24T10:19:49.815Z,0.6
2022-10-24T10:20:59.493Z,0.7
2022-10-24T10:22:08.156Z,0.6
2022-10-24T10:23:16.835Z,0.8
2022-10-24T10:24:26.521Z,0.7
2022-10-24T10:25:35.187Z,0.9
2022-10-24T10:26:43.862Z,0.9
2022-10-24T10:27:52.531Z,0.8
2022-10-24T10:29:00.208Z,0.8
2022-10-24T10:30:09.950Z,0.7
2022-10-24T10:31:19.569Z,0.5
2022-10-24T10:32:27.232Z,0.5
2022-10-24T10:34:44.577Z,0.5
2022-10-24T10:35:54.311Z,0.5
2022-10-24T10:37:03.991Z,0.7
2022-10-24T10:38:11.649Z,0.6
2022-10-24T10:39:21.320Z,0.4
2022-10-24T10:40:31.005Z,0.5
2022-10-24T10:41:39.758Z,0.5
2022-10-24T10:42:49.425Z,0.5
2022-10-24T10:43:58.272Z,0.5
2022-10-24T10:45:07.954Z,0.6
2022-10-24T10:46:17.648Z,0.6
2022-10-24T10:47:27.592Z,0.6
2022-10-24T10:48:37.000Z,0.4
2022-10-24T10:49:46.677Z,0.6
2022-10-24T10:50:56.369Z,0.6
2022-10-24T10:52:06.089Z,0.4
2022-10-24T10:53:13.782Z,0.6
2022-10-24T10:54:22.522Z,0.6
2022-10-24T10:55:32.216Z,0.6
2022-10-24T10:56:41.913Z,0.6
2022-10-24T10:57:51.572Z,0.4
2022-10-24T10:59:00.258Z,0.6
2022-10-24T11:00:08.927Z,0.7
2022-10-24T11:01:17.674Z,0.7
2022-10-24T11:02:25.428Z,0.8
2022-10-24T11:03:34.926Z,0.6
2022-10-24T11:04:42.651Z,0.7
2022-10-24T11:05:52.317Z,0.7
2022-10-24T11:07:02.000Z,0.5
2022-10-24T11:08:10.684Z,0.4
2022-10-24T11:09:20.360Z,0.4
2022-10-24T11:10:30.194Z,0.7
2022-10-24T11:11:38.867Z,0.4
2022-10-24T11:12:48.544Z,0.4
2022-10-24T11:13:55.203Z,0.4
2022-10-24T11:15:03.868Z,0.6
2022-10-24T11:16:13.572Z,0.3
2022-10-24T11:17:21.236Z,0.5
2022-10-24T11:18:31.690Z,0.5
2022-10-24T11:19:41.604Z,0.5
2022-10-24T11:20:49.342Z,0.4
2022-10-24T11:21:59.013Z,0.6
2022-10-24T11:23:06.681Z,0.4
2022-10-24T11:24:15.333Z,0.4
2022-10-24T11:25:24.026Z,0.5
2022-10-24T11:26:32.725Z,0.3
2022-10-24T11:27:42.627Z,0.6
2022-10-24T11:28:51.163Z,0.3
2022-10-24T11:30:00.864Z,0.4
2022-10-24T11:31:10.550Z,0.5
2022-10-24T11:32:19.226Z,0.4
2022-10-24T11:33:27.918Z,0.4
2022-10-24T11:34:37.622Z,0.4
2022-10-24T11:35:46.299Z,0.2
2022-10-24T11:36:56.137Z,0.2
2022-10-24T11:38:04.667Z,0.3
2022-10-24T11:39:12.358Z,0.3
2022-10-24T11:40:22.087Z,0.3
2022-10-24T11:41:29.708Z,0.2
2022-10-24T11:42:38.381Z,0.2
2022-10-24T11:43:48.070Z,0.2
2022-10-24T11:44:55.754Z,0.2
2022-10-24T11:46:05.449Z,0.2
2022-10-24T11:47:14.145Z,0.4
2022-10-24T11:48:22.815Z,0.3
2022-10-24T11:49:32.506Z,0.3
2022-10-24T11:50:40.219Z,0.3
2022-10-24T11:51:48.883Z,0.3
2022-10-24T11:52:58.559Z,0.6
2022-10-24T11:54:08.231Z,0.3
2022-10-24T11:55:17.913Z,0.3
2022-10-24T11:56:27.583Z,0.5
2022-10-24T11:57:36.269Z,0.4
2022-10-24T11:58:45.972Z,0.3
2022-10-24T11:59:55.624Z,0.5
2022-10-24T12:01:04.326Z,0.4
2022-10-24T12:02:14.055Z,0.6
2022-10-24T12:03:22.710Z,1.3
2022-10-24T12:04:32.389Z,0.7
2022-10-24T12:05:41.046Z,0.4
2022-10-24T12:06:49.754Z,0.5
2022-10-24T12:07:58.404Z,0.3
2022-10-24T12:09:06.074Z,0.2
2022-10-24T12:10:14.755Z,0.3
2022-10-24T12:11:24.489Z,0.3
2022-10-24T12:12:32.167Z,0.4
2022-10-24T12:13:42.138Z,0.3
2022-10-24T12:14:50.819Z,0.4
2022-10-24T12:15:59.492Z,0.4
2022-10-24T12:17:09.187Z,0.5
2022-10-24T12:18:17.889Z,0.3
2022-10-24T12:19:27.596Z,0.3
2022-10-24T12:20:37.285Z,0.3
2022-10-24T12:21:44.972Z,0.5
2022-10-24T12:22:54.683Z,0.3
2022-10-24T12:24:04.343Z,0.3
2022-10-24T12:25:12.052Z,0.6
2022-10-24T12:26:22.712Z,0.4
2022-10-24T12:27:30.391Z,0.2
2022-10-24T12:28:40.088Z,0.4
2022-10-24T12:29:49.766Z,0.2
2022-10-24T12:30:58.515Z,0.4
2022-10-24T12:32:08.208Z,0.3
2022-10-24T12:33:16.867Z,0.7
2022-10-24T12:34:25.546Z,0.3
2022-10-24T12:35:35.200Z,0.3
2022-10-24T12:36:41.872Z,0.3
2022-10-24T12:37:51.541Z,0.6
2022-10-24T12:39:01.349Z,0.2
2022-10-24T12:40:10.007Z,0.4
2022-10-24T12:41:19.701Z,0.4
2022-10-24T12:42:29.403Z,0.4
2022-10-24T12:43:39.093Z,0.4
2022-10-24T12:44:48.762Z,0.5
2022-10-24T12:45:57.468Z,0.4
2022-10-24T12:47:06.138Z,0.4
2022-10-24T12:48:15.846Z,0.5
2022-10-24T12:49:26.493Z,0.8
2022-10-24T12:50:36.166Z,0.6
2022-10-24T12:51:44.837Z,0.6
2022-10-24T12:52:52.499Z,0.6
2022-10-24T12:54:02.249Z,0.6
2022-10-24T12:55:10.942Z,0.6
2022-10-24T12:56:20.672Z,0.8
2022-10-24T12:57:29.268Z,0.8
2022-10-24T12:58:37.988Z,0.8
2022-10-24T12:59:47.708Z,0.7
2022-10-24T13:00:55.390Z,0.6
2022-10-24T13:02:05.349Z,0.6
2022-10-24T13:03:13.803Z,0.6
2022-10-24T13:04:22.488Z,0.5
2022-10-24T13:05:32.181Z,0.7
2022-10-24T13:06:40.946Z,0.7
2022-10-24T13:07:50.842Z,0.7
2022-10-24T13:09:00.181Z,0.6
2022-10-24T13:10:07.870Z,0.8
2022-10-24T13:11:18.577Z,0.7
2022-10-24T13:12:28.257Z,0.5
2022-10-24T13:13:35.943Z,0.7
2022-10-24T13:14:45.617Z,0.6
2022-10-24T13:15:53.278Z,0.7
2022-10-24T13:17:03.131Z,0.8
2022-10-24T13:18:12.809Z,0.8
2022-10-24T13:19:20.474Z,0.6
2022-10-24T13:20:30.230Z,0.7
2022-10-24T13:21:40.346Z,1.1
2022-10-24T13:22:49.576Z,0.4
2022-10-24T13:23:59.251Z,0.6
2022-10-24T13:25:10.316Z,0.6
2022-10-24T13:26:16.574Z,0.5
2022-10-24T13:27:26.281Z,0.7
2022-10-24T13:28:34.969Z,0.7
2022-10-24T13:29:44.684Z,0.8
2022-10-24T13:30:54.319Z,0.7
2022-10-24T13:32:01.981Z,0.8
2022-10-24T13:33:11.640Z,0.8
2022-10-24T13:34:19.354Z,0.7
2022-10-24T13:35:28.035Z,1
2022-10-24T13:36:37.691Z,0.8
2022-10-24T13:37:47.373Z,0.9
2022-10-24T13:38:57.038Z,1.1
2022-10-24T13:40:05.789Z,1.1
2022-10-24T13:41:15.429Z,1
2022-10-24T13:42:25.122Z,0.8
2022-10-24T13:43:32.793Z,0.8
2022-10-24T13:44:41.450Z,0.6
2022-10-24T13:45:51.135Z,0.6
2022-10-24T13:47:00.802Z,0.6
2022-10-24T13:48:12.048Z,0.7
2022-10-24T13:49:20.151Z,0.7
2022-10-24T13:50:27.833Z,0.6
2022-10-24T13:51:38.597Z,0.6
2022-10-24T13:52:49.429Z,0.5
2022-10-24T13:53:55.903Z,0.5
2022-10-24T13:55:05.620Z,0.5
2022-10-24T13:56:13.241Z,0.6
2022-10-24T13:57:23.031Z,0.4
2022-10-24T13:58:34.898Z,0.5
2022-10-24T13:59:40.385Z,0.7
2022-10-24T14:00:50.041Z,0.6
2022-10-24T14:01:58.724Z,0.7
2022-10-24T14:03:07.452Z,0.6
2022-10-24T14:04:17.071Z,0.6
2022-10-24T14:05:26.762Z,0.6
2022-10-24T14:06:36.428Z,0.6
2022-10-24T14:07:45.083Z,0.8
2022-10-24T14:09:04.130Z,0.6
2022-10-24T14:10:05.564Z,0.5
2022-10-24T14:11:14.167Z,0.7
2022-10-24T14:12:22.852Z,0.4
2022-10-24T14:13:32.516Z,0.4
2022-10-24T14:14:40.300Z,0.4
2022-10-24T14:15:50.008Z,0.5
2022-10-24T14:16:59.657Z,0.6
2022-10-24T14:18:07.390Z,0.4
2022-10-24T14:19:17.802Z,0.5
2022-10-24T14:20:25.668Z,0.5
2022-10-24T14:21:35.356Z,0.3
2022-10-24T14:22:45.206Z,0.1
2022-10-24T14:23:54.702Z,0.3
2022-10-24T14:25:04.389Z,0.2
2022-10-24T14:26:14.091Z,0.3
2022-10-24T14:27:22.773Z,0.3
2022-10-24T14:28:32.453Z,0.3
2022-10-24T14:29:42.205Z,0.3
2022-10-24T14:30:50.869Z,0.4
2022-10-24T14:32:00.699Z,0.3
2022-10-24T14:33:08.357Z,0.6
2022-10-24T14:34:18.063Z,0.3
2022-10-24T14:35:27.725Z,0.3
2022-10-24T14:36:35.406Z,0.6
2022-10-24T14:37:45.359Z,0.3
2022-10-24T14:38:53.781Z,0.5
2022-10-24T14:40:02.457Z,0.4
2022-10-24T14:41:12.108Z,0.4
2022-10-24T14:42:20.793Z,0.4
2022-10-24T14:43:30.481Z,0.5
2022-10-24T14:44:40.137Z,0.4
2022-10-24T14:45:47.817Z,0.6
2022-10-24T14:46:57.540Z,0.4
2022-10-24T14:48:05.292Z,0.5
2022-10-24T14:49:14.994Z,0.4
2022-10-24T14:50:24.678Z,0.4
2022-10-24T14:51:38.526Z,0.5
2022-10-24T14:52:45.267Z,0.5
2022-10-24T14:53:53.701Z,0.4
2022-10-24T14:55:03.432Z,0.5
2022-10-24T14:56:12.100Z,0.5
2022-10-24T14:57:20.777Z,0.5
2022-10-24T14:58:30.494Z,0.4
2022-10-24T14:59:38.205Z,0.6
2022-10-24T15:00:46.910Z,0.5
2022-10-24T15:01:56.600Z,0.4
2022-10-24T15:03:06.270Z,0.5
2022-10-24T15:04:15.965Z,0.5
2022-10-24T15:05:24.610Z,0.5
2022-10-24T15:06:32.313Z,0.7
2022-10-24T15:07:48.351Z,0.6
2022-10-24T15:08:51.650Z,0.4
2022-10-24T15:10:01.380Z,0.6
2022-10-24T15:11:10.037Z,0.7
2022-10-24T15:12:18.753Z,0.7
2022-10-24T15:13:28.440Z,0.5
2022-10-24T15:14:37.102Z,0.5
2022-10-24T15:15:45.799Z,0.5
2022-10-24T15:16:55.553Z,0.4
2022-10-24T15:18:04.246Z,0.4
2022-10-24T15:19:14.029Z,0.4
2022-10-24T15:20:23.719Z,0.4
2022-10-24T15:21:32.360Z,0.5
2022-10-24T15:22:42.037Z,0.3
2022-10-24T15:23:50.917Z,0.4
2022-10-24T15:24:59.619Z,0.4
2022-10-24T15:26:09.314Z,0.4
2022-10-24T15:27:17.262Z,0.7
2022-10-24T15:28:25.953Z,0.4
2022-10-24T15:29:35.696Z,0.4
2022-10-24T15:30:45.393Z,0.3
2022-10-24T15:31:55.132Z,0.7
2022-10-24T15:33:04.815Z,0.5
2022-10-24T15:34:13.513Z,0.2
2022-10-24T15:35:23.233Z,0.4
2022-10-24T15:36:31.547Z,0.4
2022-10-24T15:37:40.683Z,0.4
2022-10-24T15:38:50.362Z,0.3
2022-10-24T15:39:59.039Z,0.2
2022-10-24T15:41:08.744Z,0.2
2022-10-24T15:42:18.714Z,0.2
2022-10-24T15:43:26.134Z,0.3
2022-10-24T15:44:35.899Z,0.3
2022-10-24T15:45:44.611Z,0.2
2022-10-24T15:46:53.312Z,0.3
2022-10-24T15:48:03.001Z,0.3
2022-10-24T15:49:11.692Z,0.3
2022-10-24T15:51:30.066Z,0.3
2022-10-24T15:52:37.798Z,0.4
2022-10-24T15:53:47.454Z,0.2
2022-10-24T15:54:57.134Z,0.3
2022-10-24T15:56:05.769Z,0.3
2022-10-24T15:57:15.435Z,0.2